Time;durP1;ratioP1;P1;durP2;ratioP2;P2;SDS_P1;SDS_P2;PMS_P1;PMS_P2;Temp;Humidity;BMP_temperature;BMP_pressure;BME280_temperature;BME280_humidity;BME280_pressure;Samples;Min_cycle;Max_cycle;Signal;HPM_P1;HPM_P2
2023/08/05 00:12:52;;;;;;;;;;;;;;;29.57;78.30;100322.75;31649193;28;20072;-75
2023/08/05 00:27:54;;;;;;;18.48;8.27;;;;;;;29.34;77.14;100314.88;31625903;28;19974;-77
2023/08/05 00:42:56;;;;;;;9.73;7.35;;;;;;;29.49;75.39;100320.66;31648635;28;20388;-75
2023/08/05 00:57:58;;;;;;;;;;;;;;;29.57;77.00;100305.97;31645430;28;20139;-77
2023/08/05 01:13:00;;;;;;;11.02;7.40;;;;;;;29.27;75.95;100296.00;31641841;28;19926;-77
2023/08/05 01:28:02;;;;;;;;;;;;;;;29.38;76.89;100290.13;31635761;28;20079;-76
2023/08/05 01:43:04;;;;;;;10.75;6.43;;;;;;;29.16;76.87;100291.41;31630493;28;19946;-75
2023/08/05 01:58:09;;;;;;;10.57;7.30;;;;;;;29.13;77.77;100302.91;31639837;28;20498;-74
2023/08/05 02:13:11;;;;;;;9.93;7.40;;;;;;;29.08;77.79;100301.00;31624394;28;20051;-77
2023/08/05 02:28:13;;;;;;;11.27;7.40;;;;;;;29.17;77.44;100314.53;31647897;28;20087;-77
2023/08/05 02:43:15;;;;;;;16.00;7.50;;;;;;;28.75;84.49;100319.97;31623153;28;20052;-76
2023/08/05 02:58:17;;;;;;;15.50;8.70;;;;;;;28.97;89.78;100323.63;31620695;28;20509;-76
2023/08/05 03:13:19;;;;;;;;;;;;;;;29.09;94.29;100313.69;31618335;28;20396;-76
2023/08/05 03:28:21;;;;;;;14.15;8.60;;;;;;;29.14;90.07;100321.19;31638193;28;20045;-76
2023/08/05 03:43:23;;;;;;;;;;;;;;;29.66;93.25;100325.84;31651015;28;20076;-78
2023/08/05 03:58:26;;;;;;;15.18;10.35;;;;;;;29.67;87.83;100332.19;31655042;28;19962;-77
2023/08/05 04:13:29;;;;;;;13.80;9.43;;;;;;;29.72;87.04;100328.50;31634530;28;20483;-76
2023/08/05 04:28:31;;;;;;;21.00;9.73;;;;;;;29.97;85.44;100332.44;31646391;28;20044;-77
2023/08/05 04:43:33;;;;;;;21.75;10.55;;;;;;;30.72;81.88;100341.88;31619577;28;20553;-75
2023/08/05 04:58:35;;;;;;;19.92;10.90;;;;;;;31.52;76.70;100348.88;31647339;28;20056;-77
2023/08/05 05:13:38;;;;;;;15.25;9.30;;;;;;;32.25;72.89;100362.59;31646266;28;20080;-77
2023/08/05 05:28:40;;;;;;;14.05;8.65;;;;;;;32.76;69.78;100351.81;31646903;28;20102;-77
2023/08/05 05:43:42;;;;;;;12.45;8.38;;;;;;;33.52;65.63;100351.44;31644356;28;20072;-76
2023/08/05 05:58:44;;;;;;;10.18;7.13;;;;;;;34.10;62.19;100338.00;31626136;28;20415;-77
2023/08/05 06:13:47;;;;;;;9.82;6.53;;;;;;;34.84;59.00;100345.50;31644029;28;20076;-78
2023/08/05 06:28:50;;;;;;;10.77;6.63;;;;;;;35.33;56.25;100357.84;31634055;28;20048;-76
2023/08/05 06:43:52;;;;;;;8.82;6.97;;;;;;;36.17;53.75;100328.97;31646112;28;20115;-78
2023/08/05 06:58:54;;;;;;;10.40;7.35;;;;;;;36.89;51.90;100320.81;31637789;28;20059;-77
2023/08/05 07:13:57;;;;;;;11.15;7.22;;;;;;;37.67;50.28;100324.16;31683281;28;20403;-77
2023/08/05 07:28:59;;;;;;;10.27;7.47;;;;;;;38.30;48.63;100319.88;31687019;28;20059;-79
2023/08/05 07:44:03;;;;;;;8.25;6.82;;;;;;;38.86;45.43;100309.38;31684691;28;20453;-78
2023/08/05 07:59:05;;;;;;;9.95;6.88;;;;;;;38.94;44.05;100308.41;31680207;28;20059;-76
2023/08/05 08:14:07;;;;;;;11.23;7.30;;;;;;;39.09;43.77;100299.44;31664748;28;20469;-77
2023/08/05 08:29:09;;;;;;;10.43;7.47;;;;;;;39.58;42.09;100279.69;31673230;28;20511;-77
2023/08/05 08:44:14;;;;;;;8.15;7.28;;;;;;;40.07;42.38;100281.22;31648204;28;20048;-76
2023/08/05 08:59:16;;;;;;;7.60;6.60;;;;;;;40.43;40.44;100259.81;31672823;28;20131;-77
2023/08/05 09:14:18;;;;;;;9.25;7.10;;;;;;;41.52;40.67;100270.69;31669318;28;20051;-78
2023/08/05 09:29:21;;;;;;;12.02;7.13;;;;;;;41.96;38.95;100248.66;31652366;28;20083;-76
2023/08/05 09:44:23;;;;;;;12.07;7.57;;;;;;;42.25;38.35;100244.38;31649148;28;20048;-77
2023/08/05 09:59:26;;;;;;;15.10;7.97;;;;;;;42.97;36.87;100217.78;31638913;28;20131;-77
2023/08/05 10:14:28;;;;;;;12.63;7.93;;;;;;;43.16;36.38;100211.47;31664278;28;20404;-76
2023/08/05 10:29:30;;;;;;;11.40;6.47;;;;;;;43.61;35.83;100224.88;31649795;28;20139;-78
2023/08/05 10:44:36;;;;;;;8.68;6.15;;;;;;;44.36;34.79;100199.31;31642534;28;20056;-75
2023/08/05 11:00:00;;;;;;;8.20;5.75;;;;;;;44.60;33.42;100197.38;31642414;28;20047;-79
2023/08/05 11:15:03;;;;;;;6.87;6.17;;;;;;;44.59;34.45;100161.56;31645249;28;20059;-78
2023/08/05 11:30:16;;;;;;;7.30;5.55;;;;;;;44.04;33.37;100150.88;31624447;28;20094;-75
2023/08/05 11:45:19;;;;;;;7.07;5.82;;;;;;;42.08;34.33;100118.13;31621188;28;20097;-82
2023/08/05 12:00:23;;;;;;;11.15;5.82;;;;;;;41.49;35.41;100118.13;31644789;28;20059;-76
2023/08/05 12:15:27;;;;;;;12.93;8.80;;;;;;;40.10;37.72;100123.63;31635843;28;20043;-77
2023/08/05 12:30:31;;;;;;;8.30;6.88;;;;;;;39.70;38.58;100118.47;31649376;28;20049;-79
2023/08/05 12:45:33;;;;;;;11.18;8.82;;;;;;;39.28;39.22;100102.56;31686890;28;20083;-81
2023/08/05 13:00:35;;;;;;;8.85;6.72;;;;;;;39.28;40.22;100086.25;31693199;28;20411;-78
2023/08/05 13:15:37;;;;;;;8.73;7.47;;;;;;;38.86;40.69;100082.38;31672962;28;20098;-78
2023/08/05 13:30:39;;;;;;;8.18;6.78;;;;;;;38.94;41.08;100070.06;31677958;28;20499;-80
2023/08/05 13:45:49;;;;;;;15.20;8.90;;;;;;;38.95;41.35;100077.19;31676217;28;20151;-78
2023/08/05 14:00:53;;;;;;;8.10;6.07;;;;;;;38.72;41.15;100061.69;31678275;28;20036;-79
2023/08/05 14:15:56;;;;;;;7.47;6.38;;;;;;;38.60;41.19;100060.97;31670632;28;20058;-80
2023/08/05 14:30:59;;;;;;;10.10;6.20;;;;;;;38.51;40.97;100053.28;31656943;28;20043;-78
2023/08/05 14:46:05;;;;;;;9.32;6.30;;;;;;;38.52;41.46;100046.25;31686701;28;20479;-78
2023/08/05 15:01:17;;;;;;;9.18;6.55;;;;;;;38.32;41.63;100042.19;31682637;28;20106;-79
2023/08/05 15:16:19;;;;;;;9.40;6.22;;;;;;;38.16;41.84;100019.28;31679263;28;20476;-81
2023/08/05 15:31:21;;;;;;;9.27;7.40;;;;;;;37.89;42.87;100014.03;31674910;28;20052;-79
2023/08/05 15:46:23;;;;;;;7.95;6.40;;;;;;;37.82;43.11;100017.84;31680991;28;20109;-79
2023/08/05 16:01:26;;;;;;;11.02;6.90;;;;;;;37.49;43.80;100001.63;31692067;28;20048;-79
2023/08/05 16:16:28;;;;;;;9.77;7.45;;;;;;;37.22;44.67;99995.59;31681794;28;20143;-79
2023/08/05 16:31:30;;;;;;;11.82;7.53;;;;;;;36.87;45.52;99993.31;31674683;28;20488;-78
2023/08/05 16:46:33;;;;;;;13.07;7.95;;;;;;;36.76;46.38;99984.75;31679510;28;20070;-78
2023/08/05 17:01:49;;;;;;;9.15;7.88;;;;;;;36.33;47.42;99981.13;31660002;28;20472;-79
2023/08/05 17:16:52;;;;;;;14.23;8.43;;;;;;;36.05;47.93;99977.81;31654378;28;20058;-81
2023/08/05 17:31:54;;;;;;;10.70;9.13;;;;;;;35.84;48.24;99986.19;31655918;28;20051;-82
2023/08/05 17:46:56;;;;;;;18.95;11.90;;;;;;;35.60;49.27;99996.47;31659688;28;20079;-82
2023/08/05 18:01:58;;;;;;;22.13;11.80;;;;;;;35.33;49.76;99991.00;31655622;28;20147;-79
2023/08/05 18:17:00;;;;;;;12.30;9.52;;;;;;;35.12;50.27;99979.56;31643223;28;20468;-78
2023/08/05 18:32:02;;;;;;;19.80;10.60;;;;;;;35.11;50.44;99972.44;31648481;28;20432;-77
2023/08/05 18:47:05;;;;;;;13.65;9.75;;;;;;;34.91;50.16;99973.78;31648698;28;20055;-80
2023/08/05 19:02:07;;;;;;;12.65;8.85;;;;;;;34.74;50.77;99975.34;31649004;28;20085;-80
2023/08/05 19:17:09;;;;;;;12.98;8.30;;;;;;;34.58;51.14;99965.69;31687940;28;20143;-78
2023/08/05 19:32:11;;;;;;;11.25;9.00;;;;;;;34.33;51.60;99973.63;31675714;27;20051;-79
2023/08/05 19:47:13;;;;;;;11.95;9.00;;;;;;;34.28;52.09;99949.25;31660506;28;20095;-80
2023/08/05 20:02:15;;;;;;;10.98;8.88;;;;;;;34.14;53.06;99951.72;31668474;28;20055;-80
2023/08/05 20:17:17;;;;;;;11.88;7.85;;;;;;;33.95;53.71;99940.41;31674702;28;20058;-78
2023/08/05 20:32:19;;;;;;;11.00;7.95;;;;;;;33.72;54.53;99940.72;31688026;28;20086;-78
2023/08/05 20:47:21;;;;;;;10.13;7.47;;;;;;;33.67;55.16;99927.63;31679097;28;20407;-81
2023/08/05 21:02:26;;;;;;;16.65;8.13;;;;;;;33.46;55.69;99925.31;31685663;28;20044;-80
2023/08/05 21:17:29;;;;;;;11.75;7.07;;;;;;;33.40;54.73;99911.50;31669741;28;20488;-79
2023/08/05 21:32:32;;;;;;;11.52;8.07;;;;;;;33.36;54.71;99930.84;31654192;28;20447;-78
2023/08/05 21:47:34;;;;;;;11.30;7.72;;;;;;;33.15;55.02;99908.03;31643547;28;20048;-79
2023/08/05 22:02:36;;;;;;;13.20;7.68;;;;;;;33.02;55.04;99909.13;31675633;28;20047;-76
2023/08/05 22:17:38;;;;;;;12.25;7.18;;;;;;;32.79;55.33;99889.72;31660422;28;20105;-79
2023/08/05 22:32:40;;;;;;;9.75;7.45;;;;;;;32.69;55.43;99874.06;31667388;28;20147;-77
2023/08/05 22:47:42;;;;;;;11.52;7.63;;;;;;;32.35;56.22;99850.25;31661289;28;20044;-78
2023/08/05 23:02:45;;;;;;;13.27;7.28;;;;;;;32.18;56.63;99845.31;31646042;28;20040;-77
2023/08/05 23:17:47;;;;;;;10.90;7.43;;;;;;;32.02;57.09;99832.00;31649422;28;20060;-77
2023/08/05 23:32:50;;;;;;;15.80;8.00;;;;;;;31.93;57.55;99813.00;31646805;28;20156;-78
2023/08/05 23:47:52;;;;;;;12.25;8.18;;;;;;;31.85;58.25;99805.41;31663485;28;20484;-77
